Time,TemperatureF,DewpointF,PressureIn,WindDirection,WindDirectionDegrees,WindSpeedMPH,WindSpeedGustMPH,Humidity,HourlyPrecipIn,Conditions,Clouds,dailyrainin,SoftwareType,DateUTC
2012-12-13 00:01:00,25.9,16.8,30.28,North,6,0.0,0.0,68,0.00,,,0.00,VWS V13.01,2012-12-13 06:01:00,
2012-12-13 00:06:00,25.9,16.4,30.28,North,6,0.0,0.0,67,0.00,,,0.00,VWS V13.01,2012-12-13 06:06:00,
2012-12-13 00:11:00,26.6,16.1,30.28,North,6,0.0,0.0,64,0.00,,,0.00,VWS V13.01,2012-12-13 06:11:00,
2012-12-13 00:16:00,27.5,16.5,30.28,North,6,0.0,0.0,63,0.00,,,0.00,VWS V13.01,2012-12-13 06:16:00,
2012-12-13 00:21:00,28.2,16.9,30.28,North,6,0.0,0.0,62,0.00,,,0.00,VWS V13.01,2012-12-13 06:21:00,
2012-12-13 00:26:00,28.7,17.0,30.28,North,6,0.0,0.0,61,0.00,,,0.00,VWS V13.01,2012-12-13 06:26:00,
2012-12-13 00:31:00,29.1,17.3,30.28,North,6,0.0,0.0,61,0.00,,,0.00,VWS V13.01,2012-12-13 06:31:00,
2012-12-13 00:36:00,29.5,17.7,30.28,North,6,0.0,0.0,61,0.00,,,0.00,VWS V13.01,2012-12-13 06:36:00,
2012-12-13 00:41:00,29.3,17.5,30.28,NNE,17,0.0,0.0,61,0.00,,,0.00,VWS V13.01,2012-12-13 06:41:00,
2012-12-13 00:46:00,28.2,16.9,30.28,NNE,17,0.0,0.0,62,0.00,,,0.00,VWS V13.01,2012-12-13 06:46:00,
2012-12-13 00:51:00,27.1,16.2,30.28,NNE,17,0.0,0.0,63,0.00,,,0.00,VWS V13.01,2012-12-13 06:51:00,
2012-12-13 00:56:00,26.4,16.2,30.28,NNE,29,0.0,0.0,65,0.00,,,0.00,VWS V13.01,2012-12-13 06:56:00,
2012-12-13 01:01:00,25.9,16.1,30.28,NE,41,0.0,0.0,66,0.00,,,0.00,VWS V13.01,2012-12-13 07:01:00,
2012-12-13 01:06:00,26.0,16.2,30.28,NE,41,0.0,0.0,66,0.00,,,0.00,VWS V13.01,2012-12-13 07:06:00,
2012-12-13 01:11:00,26.4,15.9,30.28,NE,41,0.0,0.0,64,0.00,,,0.00,VWS V13.01,2012-12-13 07:11:00,
2012-12-13 01:16:00,27.5,16.5,30.28,North,2,0.0,0.0,63,0.00,,,0.00,VWS V13.01,2012-12-13 07:16:00,
2012-12-13 01:21:00,28.2,16.9,30.28,North,2,0.0,0.0,62,0.00,,,0.00,VWS V13.01,2012-12-13 07:21:00,
2012-12-13 01:26:00,29.1,17.3,30.28,North,2,0.0,0.0,61,0.00,,,0.00,VWS V13.01,2012-12-13 07:26:00,
2012-12-13 01:31:00,28.7,17.0,30.28,ENE,58,0.0,0.0,61,0.00,,,0.00,VWS V13.01,2012-12-13 07:31:00,
2012-12-13 01:36:00,27.5,16.5,30.28,NE,46,0.0,0.0,63,0.00,,,0.00,VWS V13.01,2012-12-13 07:36:00,
2012-12-13 01:41:00,26.4,16.2,30.28,NE,46,0.0,0.0,65,0.00,,,0.00,VWS V13.01,2012-12-13 07:41:00,
2012-12-13 01:46:00,26.0,16.6,30.28,NE,43,2.7,3.1,67,0.00,,,0.00,VWS V13.01,2012-12-13 07:46:00,
2012-12-13 01:51:00,25.9,16.4,30.28,NE,56,2.7,3.1,67,0.00,,,0.00,VWS V13.01,2012-12-13 07:51:00,
2012-12-13 01:56:00,25.7,16.6,30.28,ENE,57,3.1,3.1,68,0.00,,,0.00,VWS V13.01,2012-12-13 07:56:00,
2012-12-13 02:01:00,25.9,16.8,30.28,NE,37,2.2,3.1,68,0.00,,,0.00,VWS V13.01,2012-12-13 08:01:00,
2012-12-13 02:06:00,26.2,16.4,30.28,NNE,12,2.2,2.2,66,0.00,,,0.00,VWS V13.01,2012-12-13 08:06:00,
2012-12-13 02:11:00,26.8,16.2,30.28,NNE,12,2.2,2.2,64,0.00,,,0.00,VWS V13.01,2012-12-13 08:11:00,
2012-12-13 02:15:00,27.5,16.5,30.28,NNE,12,0.0,0.0,63,0.00,,,0.00,VWS V13.01,2012-12-13 08:15:00,
2012-12-13 02:20:00,28.6,16.8,30.28,NNE,12,0.0,0.0,61,0.00,,,0.00,VWS V13.01,2012-12-13 08:20:00,
2012-12-13 02:25:00,29.1,17.3,30.28,NNE,12,0.0,0.0,61,0.00,,,0.00,VWS V13.01,2012-12-13 08:25:00,
2012-12-13 02:30:00,29.3,17.5,30.28,NNE,12,2.2,2.7,61,0.00,,,0.00,VWS V13.01,2012-12-13 08:30:00,
2012-12-13 02:35:00,28.2,16.9,30.28,NNE,26,2.7,3.1,62,0.00,,,0.00,VWS V13.01,2012-12-13 08:35:00,
2012-12-13 02:40:00,27.1,16.2,30.28,NNE,27,2.2,3.1,63,0.00,,,0.00,VWS V13.01,2012-12-13 08:40:00,
2012-12-13 02:45:00,26.9,16.0,30.28,NNE,27,0.0,0.0,63,0.00,,,0.00,VWS V13.01,2012-12-13 08:45:00,
2012-12-13 02:50:00,27.5,16.5,30.28,NNE,27,0.0,0.0,63,0.00,,,0.00,VWS V13.01,2012-12-13 08:50:00,
2012-12-13 02:55:00,27.8,16.9,30.28,NNE,27,0.0,0.0,63,0.00,,,0.00,VWS V13.01,2012-12-13 08:55:00,
2012-12-13 03:00:00,27.5,16.5,30.28,NE,51,0.0,0.0,63,0.00,,,0.00,VWS V13.01,2012-12-13 09:00:00,
2012-12-13 03:05:00,27.1,16.2,30.28,NE,51,0.0,0.0,63,0.00,,,0.00,VWS V13.01,2012-12-13 09:05:00,
2012-12-13 03:10:00,27.5,16.5,30.28,NE,51,0.0,0.0,63,0.00,,,0.00,VWS V13.01,2012-12-13 09:10:00,
2012-12-13 03:15:00,27.5,16.5,30.28,NE,51,0.0,0.0,63,0.00,,,0.00,VWS V13.01,2012-12-13 09:15:00,
2012-12-13 03:20:00,27.5,16.5,30.28,NE,51,0.0,0.0,63,0.00,,,0.00,VWS V13.01,2012-12-13 09:20:00,
2012-12-13 03:25:00,28.0,16.7,30.28,NE,51,0.0,0.0,62,0.00,,,0.00,VWS V13.01,2012-12-13 09:25:00,
2012-12-13 03:30:00,28.2,17.2,30.28,NE,51,0.0,0.0,63,0.00,,,0.00,VWS V13.01,2012-12-13 09:30:00,
2012-12-13 03:35:00,27.3,16.8,30.28,NNE,18,0.0,0.0,64,0.00,,,0.00,VWS V13.01,2012-12-13 09:35:00,
2012-12-13 03:40:00,25.9,16.4,30.28,North,355,0.0,0.0,67,0.00,,,0.00,VWS V13.01,2012-12-13 09:40:00,
2012-12-13 03:45:00,25.0,16.2,30.28,NNW,345,0.0,0.0,69,0.00,,,0.00,VWS V13.01,2012-12-13 09:45:00,
2012-12-13 03:50:00,24.8,16.4,30.28,NNW,345,0.0,0.0,70,0.00,,,0.00,VWS V13.01,2012-12-13 09:50:00,
2012-12-13 03:55:00,25.1,16.8,30.28,NE,34,0.0,0.0,70,0.00,,,0.00,VWS V13.01,2012-12-13 09:55:00,
2012-12-13 04:00:00,25.0,16.9,30.28,NE,36,2.2,2.2,71,0.00,,,0.00,VWS V13.01,2012-12-13 10:00:00,
2012-12-13 04:05:00,24.6,16.9,30.28,NE,36,3.1,3.1,72,0.00,,,0.00,VWS V13.01,2012-12-13 10:05:00,
2012-12-13 04:10:00,24.8,16.4,30.28,NE,36,3.1,3.1,70,0.00,,,0.00,VWS V13.01,2012-12-13 10:10:00,
2012-12-13 04:15:00,25.0,16.2,30.28,NNE,25,2.7,2.7,69,0.00,,,0.00,VWS V13.01,2012-12-13 10:15:00,
2012-12-13 04:20:00,24.8,16.7,30.28,NNE,21,2.7,2.7,71,0.00,,,0.00,VWS V13.01,2012-12-13 10:20:00,
2012-12-13 04:25:00,24.8,17.0,30.28,NNE,21,2.7,2.7,72,0.00,,,0.00,VWS V13.01,2012-12-13 10:25:00,
2012-12-13 04:30:00,24.4,17.0,30.28,NNE,22,2.2,2.2,73,0.00,,,0.00,VWS V13.01,2012-12-13 10:30:00,
2012-12-13 04:35:00,23.7,16.6,30.28,NNE,21,2.7,2.7,74,0.00,,,0.00,VWS V13.01,2012-12-13 10:35:00,
2012-12-13 04:40:00,23.3,16.6,30.28,NNE,21,2.7,2.7,75,0.00,,,0.00,VWS V13.01,2012-12-13 10:40:00,
2012-12-13 04:45:00,23.2,16.7,30.28,NE,45,2.7,2.7,76,0.00,,,0.00,VWS V13.01,2012-12-13 10:45:00,
2012-12-13 04:50:00,23.2,17.0,30.28,ENE,61,0.0,0.0,77,0.00,,,0.00,VWS V13.01,2012-12-13 10:50:00,
2012-12-13 04:55:00,23.9,17.1,30.28,NE,36,0.0,0.0,75,0.00,,,0.00,VWS V13.01,2012-12-13 10:55:00,
2012-12-13 05:00:00,24.1,17.0,30.28,North,8,2.7,2.7,74,0.00,,,0.00,VWS V13.01,2012-12-13 11:00:00,
2012-12-13 05:05:00,23.7,17.0,30.28,NNE,23,3.1,3.1,75,0.00,,,0.00,VWS V13.01,2012-12-13 11:05:00,
2012-12-13 05:10:00,23.5,16.8,30.28,North,7,2.7,2.7,75,0.00,,,0.00,VWS V13.01,2012-12-13 11:10:00,
2012-12-13 05:15:00,23.2,16.7,30.28,North,7,2.2,2.2,76,0.00,,,0.00,VWS V13.01,2012-12-13 11:15:00,
2012-12-13 05:20:00,22.6,16.2,30.28,ENE,58,2.7,2.7,76,0.00,,,0.00,VWS V13.01,2012-12-13 11:20:00,
2012-12-13 05:25:00,22.4,16.6,30.28,NE,42,2.7,2.7,78,0.00,,,0.00,VWS V13.01,2012-12-13 11:25:00,
2012-12-13 05:30:00,22.6,16.8,30.28,NE,47,2.7,2.7,78,0.00,,,0.00,VWS V13.01,2012-12-13 11:30:00,
2012-12-13 05:35:00,22.4,16.3,30.28,NE,45,2.7,2.7,77,0.00,,,0.00,VWS V13.01,2012-12-13 11:35:00,
2012-12-13 05:40:00,22.4,16.6,30.28,NE,40,0.0,0.0,78,0.00,,,0.00,VWS V13.01,2012-12-13 11:40:00,
2012-12-13 05:45:00,22.1,16.6,30.28,NE,36,0.0,0.0,79,0.00,,,0.00,VWS V13.01,2012-12-13 11:45:00,
2012-12-13 05:50:00,22.1,16.9,30.28,NE,37,0.0,0.0,80,0.00,,,0.00,VWS V13.01,2012-12-13 11:50:00,
2012-12-13 05:55:00,21.9,16.4,30.28,NE,42,0.0,0.0,79,0.00,,,0.00,VWS V13.01,2012-12-13 11:55:00,
2012-12-13 06:00:00,22.1,17.1,30.28,NNE,19,0.0,0.0,81,0.00,,,0.00,VWS V13.01,2012-12-13 12:00:00,
2012-12-13 06:05:00,22.3,17.3,30.28,NE,37,0.0,0.0,81,0.00,,,0.00,VWS V13.01,2012-12-13 12:05:00,
2012-12-13 06:10:00,22.6,17.4,30.28,NE,37,0.0,0.0,80,0.00,,,0.00,VWS V13.01,2012-12-13 12:10:00,
2012-12-13 06:15:00,23.2,16.7,30.28,NNE,29,0.0,0.0,76,0.00,,,0.00,VWS V13.01,2012-12-13 12:15:00,
2012-12-13 06:20:00,23.0,16.6,30.28,NE,35,0.0,0.0,76,0.00,,,0.00,VWS V13.01,2012-12-13 12:20:00,
2012-12-13 06:25:00,22.8,16.7,30.28,NE,51,0.0,0.0,77,0.00,,,0.00,VWS V13.01,2012-12-13 12:25:00,
2012-12-13 06:30:00,23.0,16.9,30.28,NNE,15,0.0,0.0,77,0.00,,,0.00,VWS V13.01,2012-12-13 12:30:00,
2012-12-13 06:35:00,23.5,16.8,30.28,NE,38,0.0,0.0,75,0.00,,,0.00,VWS V13.01,2012-12-13 12:35:00,
2012-12-13 06:40:00,23.9,16.8,30.28,NNE,26,0.0,0.0,74,0.00,,,0.00,VWS V13.01,2012-12-13 12:40:00,
2012-12-13 06:45:00,23.7,16.6,30.28,NNE,26,0.0,0.0,74,0.00,,,0.00,VWS V13.01,2012-12-13 12:45:00,
2012-12-13 06:50:00,23.3,16.3,30.28,NNE,14,0.0,0.0,74,0.00,,,0.00,VWS V13.01,2012-12-13 12:50:00,
2012-12-13 06:55:00,23.2,16.7,30.28,NNE,24,0.0,0.0,76,0.00,,,0.00,VWS V13.01,2012-12-13 12:55:00,
2012-12-13 07:00:00,22.8,16.4,30.28,NNE,18,0.0,0.0,76,0.00,,,0.00,VWS V13.01,2012-12-13 13:00:00,
2012-12-13 07:05:00,22.4,16.3,30.28,North,5,0.0,0.0,77,0.00,,,0.00,VWS V13.01,2012-12-13 13:05:00,
2012-12-13 07:10:00,22.3,16.8,30.28,NNE,30,0.0,0.0,79,0.00,,,0.00,VWS V13.01,2012-12-13 13:10:00,
2012-12-13 07:15:00,22.3,17.0,30.28,NNE,29,0.0,0.0,80,0.00,,,0.00,VWS V13.01,2012-12-13 13:15:00,
2012-12-13 07:20:00,22.6,17.4,30.28,NNE,30,0.0,0.0,80,0.00,,,0.00,VWS V13.01,2012-12-13 13:20:00,
2012-12-13 07:25:00,23.3,17.8,30.28,NNE,29,0.0,0.0,79,0.00,,,0.00,VWS V13.01,2012-12-13 13:25:00,
2012-12-13 07:30:00,23.3,17.2,30.28,NNE,29,0.0,0.0,77,0.00,,,0.00,VWS V13.01,2012-12-13 13:30:00,
2012-12-13 07:35:00,23.3,17.2,30.28,NNE,30,0.0,0.0,77,0.00,,,0.00,VWS V13.01,2012-12-13 13:35:00,
2012-12-13 07:40:00,23.3,17.2,30.28,NNE,30,0.0,0.0,77,0.00,,,0.00,VWS V13.01,2012-12-13 13:40:00,
2012-12-13 07:45:00,23.7,17.6,30.28,NNE,30,0.0,0.0,77,0.00,,,0.00,VWS V13.01,2012-12-13 13:45:00,
2012-12-13 07:50:00,24.2,17.8,30.28,NNE,30,0.0,0.0,76,0.00,,,0.00,VWS V13.01,2012-12-13 13:50:00,
2012-12-13 07:55:00,25.0,17.9,30.28,NNE,30,0.0,0.0,74,0.00,,,0.00,VWS V13.01,2012-12-13 13:55:00,
2012-12-13 08:00:00,25.1,18.0,30.28,NNE,16,0.0,0.0,74,0.00,,,0.00,VWS V13.01,2012-12-13 14:00:00,
2012-12-13 08:05:00,25.5,18.4,30.28,NNE,20,0.0,0.0,74,0.00,,,0.00,VWS V13.01,2012-12-13 14:05:00,
2012-12-13 08:10:00,25.9,19.0,30.28,NNE,20,0.0,0.0,75,0.00,,,0.00,VWS V13.01,2012-12-13 14:10:00,
2012-12-13 08:15:00,26.6,19.1,30.28,NNE,20,0.0,0.0,73,0.00,,,0.00,VWS V13.01,2012-12-13 14:15:00,
2012-12-13 08:20:00,27.5,20.0,30.28,NNE,20,0.0,0.0,73,0.00,,,0.00,VWS V13.01,2012-12-13 14:20:00,
2012-12-13 08:25:00,28.7,20.2,30.28,NNE,20,0.0,0.0,70,0.00,,,0.00,VWS V13.01,2012-12-13 14:25:00,
2012-12-13 08:30:00,30.0,21.8,30.31,NNE,29,0.0,0.0,71,0.00,,,0.00,VWS V13.01,2012-12-13 14:30:00,
2012-12-13 08:35:00,31.3,23.0,30.31,NNE,29,0.0,0.0,71,0.00,,,0.00,VWS V13.01,2012-12-13 14:35:00,
2012-12-13 08:40:00,32.7,22.2,30.31,NE,44,0.0,0.0,65,0.00,,,0.00,VWS V13.01,2012-12-13 14:40:00,
2012-12-13 08:45:00,33.6,22.4,30.31,ENE,62,3.1,3.1,63,0.00,,,0.00,VWS V13.01,2012-12-13 14:45:00,
2012-12-13 08:50:00,35.0,22.2,30.31,NE,43,3.1,4.0,59,0.00,,,0.00,VWS V13.01,2012-12-13 14:50:00,
2012-12-13 08:55:00,36.5,22.7,30.31,NE,50,3.6,4.0,57,0.00,,,0.00,VWS V13.01,2012-12-13 14:55:00,
2012-12-13 09:00:00,37.4,21.8,30.31,NE,37,5.4,8.1,53,0.00,,,0.00,VWS V13.01,2012-12-13 15:00:00,
2012-12-13 09:05:00,37.9,21.9,30.31,ENE,57,5.8,6.3,52,0.00,,,0.00,VWS V13.01,2012-12-13 15:05:00,
2012-12-13 09:10:00,38.6,22.5,30.31,NNE,30,5.4,6.3,52,0.00,,,0.00,VWS V13.01,2012-12-13 15:10:00,
2012-12-13 09:15:00,39.4,23.7,30.31,NE,43,5.4,5.4,53,0.00,,,0.00,VWS V13.01,2012-12-13 15:15:00,
2012-12-13 09:20:00,39.9,24.2,30.31,NE,56,4.0,4.9,53,0.00,,,0.00,VWS V13.01,2012-12-13 15:20:00,
2012-12-13 09:25:00,40.4,23.8,30.31,NNE,25,4.0,5.4,51,0.00,,,0.00,VWS V13.01,2012-12-13 15:25:00,
2012-12-13 09:30:00,40.3,23.1,30.31,ENE,57,5.8,5.8,50,0.00,,,0.00,VWS V13.01,2012-12-13 15:30:00,
2012-12-13 09:35:00,40.6,23.9,30.31,NE,52,4.9,6.3,51,0.00,,,0.00,VWS V13.01,2012-12-13 15:35:00,
2012-12-13 09:40:00,40.6,23.5,30.31,NE,54,6.3,7.6,50,0.00,,,0.00,VWS V13.01,2012-12-13 15:40:00,
2012-12-13 09:45:00,41.2,24.0,30.31,NE,54,4.0,5.4,50,0.00,,,0.00,VWS V13.01,2012-12-13 15:45:00,
2012-12-13 09:50:00,41.7,24.0,30.31,NE,39,5.8,7.6,49,0.00,,,0.00,VWS V13.01,2012-12-13 15:50:00,
2012-12-13 09:55:00,42.2,24.5,30.31,ENE,77,8.1,8.1,49,0.00,,,0.00,VWS V13.01,2012-12-13 15:55:00,
2012-12-13 10:00:00,42.8,25.0,30.31,NE,40,2.7,4.0,49,0.00,,,0.00,VWS V13.01,2012-12-13 16:00:00,
2012-12-13 10:05:00,43.5,25.1,30.31,ENE,61,5.4,5.4,48,0.00,,,0.00,VWS V13.01,2012-12-13 16:05:00,
2012-12-13 10:10:00,43.7,25.3,30.31,East,88,5.8,7.6,48,0.00,,,0.00,VWS V13.01,2012-12-13 16:10:00,
2012-12-13 10:16:00,43.7,25.3,30.31,ENE,67,5.4,7.6,48,0.00,,,0.00,VWS V13.01,2012-12-13 16:16:00,
2012-12-13 10:21:00,43.9,25.5,30.31,NE,56,5.8,5.8,48,0.00,,,0.00,VWS V13.01,2012-12-13 16:21:00,
2012-12-13 10:26:00,44.2,25.8,30.31,ENE,71,5.8,5.8,48,0.00,,,0.00,VWS V13.01,2012-12-13 16:26:00,
2012-12-13 10:31:00,44.6,25.6,30.31,ESE,107,4.0,4.9,47,0.00,,,0.00,VWS V13.01,2012-12-13 16:31:00,
2012-12-13 10:36:00,44.8,26.3,30.31,NE,35,6.3,7.2,48,0.00,,,0.00,VWS V13.01,2012-12-13 16:36:00,
2012-12-13 10:41:00,45.3,26.8,30.31,ESE,102,6.3,6.3,48,0.00,,,0.00,VWS V13.01,2012-12-13 16:41:00,
2012-12-13 10:46:00,45.8,26.8,30.28,East,84,3.6,3.6,47,0.00,,,0.00,VWS V13.01,2012-12-13 16:46:00,
2012-12-13 10:51:00,46.0,26.9,30.28,ENE,77,4.0,4.9,47,0.00,,,0.00,VWS V13.01,2012-12-13 16:51:00,
2012-12-13 10:56:00,46.4,27.3,30.28,NE,34,8.1,8.1,47,0.00,,,0.00,VWS V13.01,2012-12-13 16:56:00,
2012-12-13 11:01:00,46.4,27.3,30.28,ENE,70,6.3,8.1,47,0.00,,,0.00,VWS V13.01,2012-12-13 17:01:00,
2012-12-13 11:06:00,46.6,27.4,30.28,East,88,2.7,3.6,47,0.00,,,0.00,VWS V13.01,2012-12-13 17:06:00,
2012-12-13 11:11:00,47.6,28.4,30.28,ENE,78,5.8,5.8,47,0.00,,,0.00,VWS V13.01,2012-12-13 17:11:00,
2012-12-13 11:16:00,48.0,28.2,30.28,NE,56,2.7,2.7,46,0.00,,,0.00,VWS V13.01,2012-12-13 17:16:00,
2012-12-13 11:21:00,48.5,28.7,30.28,ENE,70,7.6,10.5,46,0.00,,,0.00,VWS V13.01,2012-12-13 17:21:00,
2012-12-13 11:26:00,48.2,28.4,30.28,ESE,120,5.4,5.4,46,0.00,,,0.00,VWS V13.01,2012-12-13 17:26:00,
2012-12-13 11:31:00,48.4,28.5,30.28,ENE,73,4.9,5.8,46,0.00,,,0.00,VWS V13.01,2012-12-13 17:31:00,
2012-12-13 11:36:00,48.5,28.7,30.28,ESE,102,3.6,5.8,46,0.00,,,0.00,VWS V13.01,2012-12-13 17:36:00,
2012-12-13 11:41:00,48.2,28.4,30.28,ENE,58,4.0,5.4,46,0.00,,,0.00,VWS V13.01,2012-12-13 17:41:00,
2012-12-13 11:46:00,48.4,28.5,30.28,ESE,112,4.9,4.9,46,0.00,,,0.00,VWS V13.01,2012-12-13 17:46:00,
2012-12-13 11:51:00,48.7,27.8,30.28,South,188,3.6,4.9,44,0.00,,,0.00,VWS V13.01,2012-12-13 17:51:00,
2012-12-13 11:56:00,49.3,29.4,30.28,ESE,115,3.1,4.0,46,0.00,,,0.00,VWS V13.01,2012-12-13 17:56:00,
2012-12-13 12:01:00,49.6,28.6,30.25,East,81,4.5,4.5,44,0.00,,,0.00,VWS V13.01,2012-12-13 18:01:00,
2012-12-13 12:06:00,50.0,28.4,30.25,SSE,152,2.7,3.1,43,0.00,,,0.00,VWS V13.01,2012-12-13 18:06:00,
2012-12-13 12:11:00,50.2,28.5,30.25,ENE,69,6.3,6.3,43,0.00,,,0.00,VWS V13.01,2012-12-13 18:11:00,
2012-12-13 12:16:00,50.3,28.7,30.25,SSE,161,3.6,3.6,43,0.00,,,0.00,VWS V13.01,2012-12-13 18:16:00,
2012-12-13 12:21:00,51.1,29.4,30.25,East,80,3.1,3.1,43,0.00,,,0.00,VWS V13.01,2012-12-13 18:21:00,
2012-12-13 12:26:00,51.1,29.4,30.25,ENE,75,4.0,6.3,43,0.00,,,0.00,VWS V13.01,2012-12-13 18:26:00,
2012-12-13 12:31:00,50.7,29.0,30.25,ESE,102,3.1,5.8,43,0.00,,,0.00,VWS V13.01,2012-12-13 18:31:00,
2012-12-13 12:36:00,51.1,29.4,30.25,SE,135,4.9,4.9,43,0.00,,,0.00,VWS V13.01,2012-12-13 18:36:00,
2012-12-13 12:41:00,51.2,29.5,30.25,NE,55,5.4,5.4,43,0.00,,,0.00,VWS V13.01,2012-12-13 18:41:00,
2012-12-13 12:46:00,51.8,28.2,30.25,East,87,2.7,2.7,40,0.00,,,0.00,VWS V13.01,2012-12-13 18:46:00,
2012-12-13 12:51:00,52.1,28.6,30.25,SSE,163,3.1,3.6,40,0.00,,,0.00,VWS V13.01,2012-12-13 18:51:00,
2012-12-13 12:56:00,52.3,28.7,30.25,SSE,157,3.1,3.6,40,0.00,,,0.00,VWS V13.01,2012-12-13 18:56:00,
2012-12-13 13:01:00,52.3,28.7,30.25,SE,129,3.6,3.6,40,0.00,,,0.00,VWS V13.01,2012-12-13 19:01:00,
2012-12-13 13:06:00,53.0,29.4,30.25,South,180,5.4,5.4,40,0.00,,,0.00,VWS V13.01,2012-12-13 19:06:00,
2012-12-13 13:11:00,52.9,29.2,30.25,SE,143,3.1,3.6,40,0.00,,,0.00,VWS V13.01,2012-12-13 19:11:00,
2012-12-13 13:16:00,52.7,29.1,30.25,SSE,158,3.6,5.4,40,0.00,,,0.00,VWS V13.01,2012-12-13 19:16:00,
2012-12-13 13:21:00,52.9,29.2,30.25,South,174,3.6,3.6,40,0.00,,,0.00,VWS V13.01,2012-12-13 19:21:00,
2012-12-13 13:26:00,53.0,29.4,30.25,ESE,104,2.2,2.2,40,0.00,,,0.00,VWS V13.01,2012-12-13 19:26:00,
2012-12-13 13:31:00,53.6,29.9,30.22,ENE,78,3.1,5.8,40,0.00,,,0.00,VWS V13.01,2012-12-13 19:31:00,
2012-12-13 13:36:00,53.4,29.7,30.22,ESE,109,3.6,3.6,40,0.00,,,0.00,VWS V13.01,2012-12-13 19:36:00,
2012-12-13 13:41:00,53.4,27.8,30.22,North,10,4.0,4.0,37,0.00,,,0.00,VWS V13.01,2012-12-13 19:41:00,
2012-12-13 13:46:00,53.4,29.7,30.22,North,7,2.7,3.6,40,0.00,,,0.00,VWS V13.01,2012-12-13 19:46:00,
2012-12-13 13:51:00,52.7,27.8,30.22,WNW,295,4.5,4.5,38,0.00,,,0.00,VWS V13.01,2012-12-13 19:51:00,
2012-12-13 13:56:00,52.9,29.2,30.22,NE,55,0.0,0.0,40,0.00,,,0.00,VWS V13.01,2012-12-13 19:56:00,
2012-12-13 14:01:00,53.6,29.9,30.22,South,186,2.7,4.0,40,0.00,,,0.00,VWS V13.01,2012-12-13 20:01:00,
2012-12-13 14:06:00,54.5,30.7,30.22,SW,219,3.6,4.0,40,0.00,,,0.00,VWS V13.01,2012-12-13 20:06:00,
2012-12-13 14:11:00,54.7,30.8,30.22,ENE,65,2.7,4.0,40,0.00,,,0.00,VWS V13.01,2012-12-13 20:11:00,
2012-12-13 14:15:00,55.2,30.7,30.22,NNW,343,2.7,3.1,39,0.00,,,0.00,VWS V13.01,2012-12-13 20:15:00,
2012-12-13 14:20:00,54.8,31.0,30.22,SW,224,3.6,3.6,40,0.00,,,0.00,VWS V13.01,2012-12-13 20:20:00,
2012-12-13 14:25:00,54.8,31.0,30.22,South,187,0.0,0.0,40,0.00,,,0.00,VWS V13.01,2012-12-13 20:25:00,
2012-12-13 14:30:00,55.2,30.7,30.22,SSE,165,3.6,4.0,39,0.00,,,0.00,VWS V13.01,2012-12-13 20:30:00,
2012-12-13 14:35:00,54.8,31.0,30.22,South,189,2.7,3.6,40,0.00,,,0.00,VWS V13.01,2012-12-13 20:35:00,
2012-12-13 14:40:00,54.7,30.8,30.22,East,83,0.0,0.0,40,0.00,,,0.00,VWS V13.01,2012-12-13 20:40:00,
2012-12-13 14:45:00,55.6,31.0,30.22,South,185,4.0,4.0,39,0.00,,,0.00,VWS V13.01,2012-12-13 20:45:00,
2012-12-13 14:50:00,55.4,30.9,30.22,SSE,157,2.7,3.1,39,0.00,,,0.00,VWS V13.01,2012-12-13 20:50:00,
2012-12-13 14:55:00,55.4,30.9,30.22,WNW,295,0.0,0.0,39,0.00,,,0.00,VWS V13.01,2012-12-13 20:55:00,
2012-12-13 15:00:00,55.6,31.0,30.22,SSW,196,2.7,2.7,39,0.00,,,0.00,VWS V13.01,2012-12-13 21:00:00,
2012-12-13 15:05:00,55.2,30.7,30.22,SW,217,0.0,3.1,39,0.00,,,0.00,VWS V13.01,2012-12-13 21:05:00,
2012-12-13 15:10:00,54.7,30.8,30.22,NE,39,2.7,3.1,40,0.00,,,0.00,VWS V13.01,2012-12-13 21:10:00,
2012-12-13 15:15:00,54.3,30.5,30.22,ENE,72,2.7,2.7,40,0.00,,,0.00,VWS V13.01,2012-12-13 21:15:00,
2012-12-13 15:20:00,54.1,30.4,30.22,NE,36,3.1,3.6,40,0.00,,,0.00,VWS V13.01,2012-12-13 21:20:00,
2012-12-13 15:25:00,54.1,30.4,30.22,NE,53,0.0,2.2,40,0.00,,,0.00,VWS V13.01,2012-12-13 21:25:00,
2012-12-13 15:30:00,54.1,30.4,30.22,NE,40,0.0,0.0,40,0.00,,,0.00,VWS V13.01,2012-12-13 21:30:00,
2012-12-13 15:35:00,54.1,30.4,30.22,ESE,106,3.1,3.1,40,0.00,,,0.00,VWS V13.01,2012-12-13 21:35:00,
2012-12-13 15:40:00,54.1,30.4,30.22,ENE,67,3.6,3.6,40,0.00,,,0.00,VWS V13.01,2012-12-13 21:40:00,
2012-12-13 15:46:00,53.9,30.2,30.22,ENE,66,2.7,2.7,40,0.00,,,0.00,VWS V13.01,2012-12-13 21:46:00,
2012-12-13 15:51:00,53.9,30.2,30.22,NE,34,3.6,4.0,40,0.00,,,0.00,VWS V13.01,2012-12-13 21:51:00,
2012-12-13 15:56:00,53.9,30.2,30.22,ENE,65,4.0,4.0,40,0.00,,,0.00,VWS V13.01,2012-12-13 21:56:00,
2012-12-13 16:01:00,53.9,30.2,30.19,NE,44,2.7,2.7,40,0.00,,,0.00,VWS V13.01,2012-12-13 22:01:00,
2012-12-13 16:06:00,53.8,30.0,30.19,NE,35,4.0,4.0,40,0.00,,,0.00,VWS V13.01,2012-12-13 22:06:00,
2012-12-13 16:11:00,53.8,30.0,30.19,NE,52,3.1,3.1,40,0.00,,,0.00,VWS V13.01,2012-12-13 22:11:00,
2012-12-13 16:16:00,53.6,29.9,30.19,ENE,60,2.7,2.7,40,0.00,,,0.00,VWS V13.01,2012-12-13 22:16:00,
2012-12-13 16:21:00,53.4,29.7,30.19,NE,47,3.1,4.0,40,0.00,,,0.00,VWS V13.01,2012-12-13 22:21:00,
2012-12-13 16:26:00,53.2,29.5,30.19,NE,52,5.4,5.4,40,0.00,,,0.00,VWS V13.01,2012-12-13 22:26:00,
2012-12-13 16:31:00,52.9,29.2,30.19,NE,50,4.0,6.3,40,0.00,,,0.00,VWS V13.01,2012-12-13 22:31:00,
2012-12-13 16:37:00,52.3,28.7,30.19,NE,41,4.0,5.4,40,0.00,,,0.00,VWS V13.01,2012-12-13 22:37:00,
2012-12-13 16:42:00,52.0,28.4,30.19,ENE,63,3.6,3.6,40,0.00,,,0.00,VWS V13.01,2012-12-13 22:42:00,
2012-12-13 16:47:00,51.8,28.2,30.19,NE,48,2.7,3.1,40,0.00,,,0.00,VWS V13.01,2012-12-13 22:47:00,
2012-12-13 16:52:00,51.2,28.4,30.19,NE,49,3.1,4.0,41,0.00,,,0.00,VWS V13.01,2012-12-13 22:52:00,
2012-12-13 16:57:00,51.1,28.2,30.19,NNE,27,3.6,3.6,41,0.00,,,0.00,VWS V13.01,2012-12-13 22:57:00,
2012-12-13 17:02:00,50.7,27.9,30.19,NE,41,2.7,4.0,41,0.00,,,0.00,VWS V13.01,2012-12-13 23:02:00,
2012-12-13 17:07:00,50.2,27.4,30.19,NE,56,2.7,2.7,41,0.00,,,0.00,VWS V13.01,2012-12-13 23:07:00,
2012-12-13 17:13:00,49.6,28.6,30.19,NE,46,2.7,2.7,44,0.00,,,0.00,VWS V13.01,2012-12-13 23:13:00,
2012-12-13 17:18:00,49.3,28.3,30.19,NE,53,2.7,3.1,44,0.00,,,0.00,VWS V13.01,2012-12-13 23:18:00,
2012-12-13 17:23:00,48.7,27.8,30.19,NE,39,3.1,3.1,44,0.00,,,0.00,VWS V13.01,2012-12-13 23:23:00,
2012-12-13 17:28:00,48.5,27.6,30.19,NE,39,3.1,3.6,44,0.00,,,0.00,VWS V13.01,2012-12-13 23:28:00,
2012-12-13 17:33:00,48.2,27.3,30.19,NE,40,2.2,2.2,44,0.00,,,0.00,VWS V13.01,2012-12-13 23:33:00,
2012-12-13 17:38:00,47.5,26.6,30.19,NNE,22,0.0,0.0,44,0.00,,,0.00,VWS V13.01,2012-12-13 23:38:00,
2012-12-13 17:43:00,46.9,27.2,30.19,NNE,23,0.0,0.0,46,0.00,,,0.00,VWS V13.01,2012-12-13 23:43:00,
2012-12-13 17:48:00,46.4,26.7,30.19,NNE,23,0.0,0.0,46,0.00,,,0.00,VWS V13.01,2012-12-13 23:48:00,
2012-12-13 17:53:00,45.7,26.6,30.19,NE,47,2.7,2.7,47,0.00,,,0.00,VWS V13.01,2012-12-13 23:53:00,
2012-12-13 17:58:00,45.3,26.3,30.19,NE,49,2.2,2.7,47,0.00,,,0.00,VWS V13.01,2012-12-13 23:58:00,
2012-12-13 18:03:00,44.8,26.3,30.19,NE,49,2.2,2.2,48,0.00,,,0.00,VWS V13.01,2012-12-14 00:03:00,
2012-12-13 18:08:00,44.2,25.8,30.19,NE,49,0.0,0.0,48,0.00,,,0.00,VWS V13.01,2012-12-14 00:08:00,
2012-12-13 18:13:00,44.0,25.6,30.19,NE,49,2.2,2.2,48,0.00,,,0.00,VWS V13.01,2012-12-14 00:13:00,
2012-12-13 18:18:00,44.0,25.6,30.19,NE,49,2.7,2.7,48,0.00,,,0.00,VWS V13.01,2012-12-14 00:18:00,
2012-12-13 18:24:00,43.3,25.5,30.19,NE,49,2.2,2.2,49,0.00,,,0.00,VWS V13.01,2012-12-14 00:24:00,
2012-12-13 18:29:00,42.8,25.0,30.19,NE,49,2.7,2.7,49,0.00,,,0.00,VWS V13.01,2012-12-14 00:29:00,
2012-12-13 18:35:00,42.1,24.8,30.19,NE,35,3.6,3.6,50,0.00,,,0.00,VWS V13.01,2012-12-14 00:35:00,
2012-12-13 18:40:00,41.2,24.4,30.19,NE,34,3.1,3.1,51,0.00,,,0.00,VWS V13.01,2012-12-14 00:40:00,
2012-12-13 18:45:00,40.4,24.7,30.19,NE,34,3.1,3.1,53,0.00,,,0.00,VWS V13.01,2012-12-14 00:45:00,
2012-12-13 18:50:00,39.7,24.9,30.19,NE,34,2.2,2.7,55,0.00,,,0.00,VWS V13.01,2012-12-14 00:50:00,
2012-12-13 18:55:00,39.0,25.1,30.19,NE,34,2.7,3.6,57,0.00,,,0.00,VWS V13.01,2012-12-14 00:55:00,
2012-12-13 19:00:00,38.3,25.2,30.19,NE,34,3.1,3.1,59,0.00,,,0.00,VWS V13.01,2012-12-14 01:00:00,
2012-12-13 19:05:00,37.7,24.7,30.19,NE,34,2.7,2.7,59,0.00,,,0.00,VWS V13.01,2012-12-14 01:05:00,
2012-12-13 19:10:00,36.8,24.3,30.19,NNE,23,2.7,2.7,60,0.00,,,0.00,VWS V13.01,2012-12-14 01:10:00,
2012-12-13 19:15:00,36.5,23.9,30.19,NNE,23,2.7,3.1,60,0.00,,,0.00,VWS V13.01,2012-12-14 01:15:00,
2012-12-13 19:20:00,35.9,23.8,30.19,NNE,23,3.1,3.1,61,0.00,,,0.00,VWS V13.01,2012-12-14 01:20:00,
2012-12-13 19:25:00,35.6,23.5,30.19,NE,37,2.7,2.7,61,0.00,,,0.00,VWS V13.01,2012-12-14 01:25:00,
2012-12-13 19:30:00,35.4,23.7,30.19,NE,44,2.2,2.7,62,0.00,,,0.00,VWS V13.01,2012-12-14 01:30:00,
2012-12-13 19:35:00,35.4,23.7,30.19,NE,49,3.1,3.1,62,0.00,,,0.00,VWS V13.01,2012-12-14 01:35:00,
2012-12-13 19:40:00,34.9,23.6,30.19,NE,45,2.7,3.1,63,0.00,,,0.00,VWS V13.01,2012-12-14 01:40:00,
2012-12-13 19:45:00,34.3,23.4,30.19,NE,35,2.2,3.1,64,0.00,,,0.00,VWS V13.01,2012-12-14 01:45:00,
2012-12-13 19:50:00,34.1,23.2,30.19,NNE,24,3.1,3.1,64,0.00,,,0.00,VWS V13.01,2012-12-14 01:50:00,
2012-12-13 19:55:00,34.0,23.5,30.19,NE,42,2.7,3.1,65,0.00,,,0.00,VWS V13.01,2012-12-14 01:55:00,
2012-12-13 20:00:00,33.8,23.6,30.19,NE,36,2.7,3.6,66,0.00,,,0.00,VWS V13.01,2012-12-14 02:00:00,
2012-12-13 20:05:00,33.6,23.8,30.19,NNE,33,0.0,2.2,67,0.00,,,0.00,VWS V13.01,2012-12-14 02:05:00,
2012-12-13 20:10:00,33.4,23.7,30.19,NNE,27,3.1,3.1,67,0.00,,,0.00,VWS V13.01,2012-12-14 02:10:00,
2012-12-13 20:15:00,33.4,23.7,30.19,NE,39,3.1,4.0,67,0.00,,,0.00,VWS V13.01,2012-12-14 02:15:00,
2012-12-13 20:20:00,33.4,24.0,30.19,NE,36,2.7,3.1,68,0.00,,,0.00,VWS V13.01,2012-12-14 02:20:00,
2012-12-13 20:25:00,33.4,23.7,30.19,NE,35,2.2,3.1,67,0.00,,,0.00,VWS V13.01,2012-12-14 02:25:00,
2012-12-13 20:30:00,33.6,23.5,30.19,NE,36,2.7,3.6,66,0.00,,,0.00,VWS V13.01,2012-12-14 02:30:00,
2012-12-13 20:35:00,34.0,23.5,30.19,NE,36,2.7,2.7,65,0.00,,,0.00,VWS V13.01,2012-12-14 02:35:00,
2012-12-13 20:40:00,34.5,23.2,30.19,NE,36,2.7,3.1,63,0.00,,,0.00,VWS V13.01,2012-12-14 02:40:00,
2012-12-13 20:45:00,34.7,23.4,30.19,NNE,13,2.7,3.1,63,0.00,,,0.00,VWS V13.01,2012-12-14 02:45:00,
2012-12-13 20:50:00,34.7,23.4,30.19,NNE,13,3.1,3.1,63,0.00,,,0.00,VWS V13.01,2012-12-14 02:50:00,
2012-12-13 20:55:00,35.2,23.1,30.19,NNE,13,0.0,0.0,61,0.00,,,0.00,VWS V13.01,2012-12-14 02:55:00,
2012-12-13 21:00:00,35.9,23.4,30.19,NNE,13,0.0,0.0,60,0.00,,,0.00,VWS V13.01,2012-12-14 03:00:00,
2012-12-13 21:05:00,36.5,23.9,30.19,NNE,13,0.0,0.0,60,0.00,,,0.00,VWS V13.01,2012-12-14 03:05:00,
2012-12-13 21:10:00,35.9,23.4,30.19,NE,39,0.0,0.0,60,0.00,,,0.00,VWS V13.01,2012-12-14 03:10:00,
2012-12-13 21:15:00,35.2,23.1,30.19,NE,42,0.0,0.0,61,0.00,,,0.00,VWS V13.01,2012-12-14 03:15:00,
2012-12-13 21:20:00,35.2,23.1,30.19,NE,42,0.0,0.0,61,0.00,,,0.00,VWS V13.01,2012-12-14 03:20:00,
2012-12-13 21:25:00,35.6,23.1,30.19,NE,35,0.0,0.0,60,0.00,,,0.00,VWS V13.01,2012-12-14 03:25:00,
2012-12-13 21:30:00,35.0,23.0,30.22,NE,40,2.7,3.1,61,0.00,,,0.00,VWS V13.01,2012-12-14 03:30:00,
2012-12-13 21:35:00,34.7,23.0,30.22,NE,41,2.7,2.7,62,0.00,,,0.00,VWS V13.01,2012-12-14 03:35:00,
2012-12-13 21:40:00,34.3,23.0,30.22,NNE,32,2.7,3.1,63,0.00,,,0.00,VWS V13.01,2012-12-14 03:40:00,
2012-12-13 21:45:00,33.6,22.7,30.22,NE,36,2.7,2.7,64,0.00,,,0.00,VWS V13.01,2012-12-14 03:45:00,
2012-12-13 21:50:00,32.9,22.8,30.22,NE,34,2.7,3.6,66,0.00,,,0.00,VWS V13.01,2012-12-14 03:50:00,
2012-12-13 21:55:00,32.5,22.8,30.22,NE,37,2.7,3.1,67,0.00,,,0.00,VWS V13.01,2012-12-14 03:55:00,
2012-12-13 22:00:00,32.5,22.8,30.22,NE,38,2.7,3.1,67,0.00,,,0.00,VWS V13.01,2012-12-14 04:00:00,
2012-12-13 22:05:00,33.4,22.9,30.22,NNE,30,3.1,3.1,65,0.00,,,0.00,VWS V13.01,2012-12-14 04:05:00,
2012-12-13 22:10:00,32.9,22.8,30.22,NE,34,2.7,2.7,66,0.00,,,0.00,VWS V13.01,2012-12-14 04:10:00,
2012-12-13 22:15:00,32.2,22.8,30.22,NNE,30,2.2,3.1,68,0.00,,,0.00,VWS V13.01,2012-12-14 04:15:00,
2012-12-13 22:20:00,31.8,23.1,30.22,NNE,30,3.1,3.1,70,0.00,,,0.00,VWS V13.01,2012-12-14 04:20:00,
2012-12-13 22:25:00,31.4,22.8,30.22,NE,52,2.7,3.1,70,0.00,,,0.00,VWS V13.01,2012-12-14 04:25:00,
2012-12-13 22:30:00,31.3,23.0,30.22,NE,47,2.7,4.0,71,0.00,,,0.00,VWS V13.01,2012-12-14 04:30:00,
2012-12-13 22:35:00,31.3,23.0,30.22,NNE,24,2.2,2.2,71,0.00,,,0.00,VWS V13.01,2012-12-14 04:35:00,
2012-12-13 22:40:00,31.1,22.8,30.22,NNE,28,2.7,3.1,71,0.00,,,0.00,VWS V13.01,2012-12-14 04:40:00,
2012-12-13 22:45:00,30.9,22.6,30.22,ENE,63,2.7,3.6,71,0.00,,,0.00,VWS V13.01,2012-12-14 04:45:00,
2012-12-13 22:50:00,30.9,22.6,30.22,NE,41,3.1,4.0,71,0.00,,,0.00,VWS V13.01,2012-12-14 04:50:00,
2012-12-13 22:55:00,30.7,22.8,30.22,NNE,29,3.1,3.1,72,0.00,,,0.00,VWS V13.01,2012-12-14 04:55:00,
2012-12-13 23:00:00,30.4,22.4,30.19,NE,37,2.2,2.2,72,0.00,,,0.00,VWS V13.01,2012-12-14 05:00:00,
2012-12-13 23:05:00,30.2,22.6,30.19,NE,34,3.1,3.6,73,0.00,,,0.00,VWS V13.01,2012-12-14 05:05:00,
2012-12-13 23:10:00,30.0,22.4,30.19,NE,40,2.7,3.1,73,0.00,,,0.00,VWS V13.01,2012-12-14 05:10:00,
2012-12-13 23:15:00,29.6,22.1,30.19,NE,43,2.2,2.2,73,0.00,,,0.00,VWS V13.01,2012-12-14 05:15:00,
2012-12-13 23:20:00,29.5,22.2,30.19,NE,38,3.1,3.1,74,0.00,,,0.00,VWS V13.01,2012-12-14 05:20:00,
2012-12-13 23:25:00,29.3,22.4,30.19,NNE,33,2.2,2.2,75,0.00,,,0.00,VWS V13.01,2012-12-14 05:25:00,
2012-12-13 23:30:00,29.3,22.4,30.19,NE,34,2.7,3.1,75,0.00,,,0.00,VWS V13.01,2012-12-14 05:30:00,
2012-12-13 23:35:00,29.5,22.5,30.19,NE,43,2.7,3.1,75,0.00,,,0.00,VWS V13.01,2012-12-14 05:35:00,
2012-12-13 23:40:00,30.0,22.7,30.19,NE,45,3.1,3.1,74,0.00,,,0.00,VWS V13.01,2012-12-14 05:40:00,
2012-12-13 23:45:00,30.7,22.8,30.19,NNE,28,2.7,3.1,72,0.00,,,0.00,VWS V13.01,2012-12-14 05:45:00,
2012-12-13 23:50:00,30.5,22.6,30.19,NNE,28,2.7,3.1,72,0.00,,,0.00,VWS V13.01,2012-12-14 05:50:00,
2012-12-13 23:55:00,30.4,22.4,30.19,NNE,28,0.0,0.0,72,0.00,,,0.00,VWS V13.01,2012-12-14 05:55:00,